createdAt,value
2017-12-30T00:01:27.714Z,2.30
2017-12-30T00:03:55.220Z,2.30
2017-12-30T00:06:22.721Z,2.20
2017-12-30T00:08:50.262Z,2.30
2017-12-30T00:11:18.542Z,2.40
2017-12-30T00:13:46.810Z,2.40
2017-12-30T00:16:14.346Z,2.40
2017-12-30T00:18:41.868Z,2.40
2017-12-30T00:21:09.378Z,2.40
2017-12-30T00:23:36.909Z,2.50
2017-12-30T00:26:04.448Z,2.50
2017-12-30T00:28:32.754Z,2.50
2017-12-30T00:31:00.302Z,2.50
2017-12-30T00:33:27.864Z,2.60
2017-12-30T00:35:55.385Z,2.70
2017-12-30T00:38:22.877Z,2.70
2017-12-30T00:40:51.190Z,2.70
2017-12-30T00:43:18.730Z,2.70
2017-12-30T00:45:46.273Z,2.70
2017-12-30T00:48:14.561Z,2.80
2017-12-30T00:50:42.110Z,2.70
2017-12-30T00:53:09.617Z,2.80
2017-12-30T00:55:37.174Z,2.80
2017-12-30T00:58:04.668Z,2.70
2017-12-30T01:00:32.449Z,2.80
2017-12-30T01:03:00.011Z,2.80
2017-12-30T01:05:27.572Z,2.90
2017-12-30T01:07:55.152Z,2.90
2017-12-30T01:10:22.700Z,2.90
2017-12-30T01:12:50.197Z,2.80
2017-12-30T01:15:17.691Z,2.80
2017-12-30T01:17:45.222Z,2.80
2017-12-30T01:20:13.571Z,2.80
2017-12-30T01:22:41.086Z,2.80
2017-12-30T01:25:09.414Z,2.90
2017-12-30T01:27:36.929Z,2.90
2017-12-30T01:30:05.198Z,2.90
2017-12-30T01:32:32.726Z,2.90
2017-12-30T01:35:00.224Z,2.90
2017-12-30T01:37:27.762Z,2.90
2017-12-30T01:39:55.272Z,3.00
2017-12-30T01:42:23.585Z,2.90
2017-12-30T01:44:51.118Z,2.90
2017-12-30T01:47:19.382Z,3.00
2017-12-30T01:49:46.913Z,3.00
2017-12-30T01:52:14.421Z,3.10
2017-12-30T01:54:42.694Z,3.20
2017-12-30T01:57:10.986Z,3.20
2017-12-30T01:59:39.259Z,3.20
2017-12-30T02:02:07.542Z,3.20
2017-12-30T02:04:35.810Z,3.10
2017-12-30T02:07:03.350Z,3.10
2017-12-30T02:09:30.892Z,3.10
2017-12-30T02:11:58.425Z,3.10
2017-12-30T02:14:25.925Z,3.00
2017-12-30T02:16:53.454Z,3.00
2017-12-30T02:19:20.978Z,3.00
2017-12-30T02:21:48.526Z,3.10
2017-12-30T02:24:16.030Z,3.20
2017-12-30T02:26:44.291Z,3.20
2017-12-30T02:29:11.820Z,3.20
2017-12-30T02:31:39.319Z,3.20
2017-12-30T02:34:06.867Z,3.20
2017-12-30T02:36:34.360Z,3.20
2017-12-30T02:39:02.670Z,3.30
2017-12-30T02:41:30.196Z,3.20
2017-12-30T02:43:57.737Z,3.30
2017-12-30T02:46:25.245Z,3.40
2017-12-30T02:48:52.786Z,3.30
2017-12-30T02:51:20.321Z,3.40
2017-12-30T02:53:47.847Z,3.30
2017-12-30T02:56:15.350Z,3.40
2017-12-30T02:58:42.901Z,3.40
2017-12-30T03:01:10.402Z,3.40
2017-12-30T03:03:37.904Z,3.20
2017-12-30T03:06:05.441Z,3.20
2017-12-30T03:08:33.706Z,2.90
2017-12-30T03:11:01.202Z,2.90
2017-12-30T03:13:28.756Z,3.00
2017-12-30T03:15:57.058Z,2.90
2017-12-30T03:18:24.585Z,2.80
2017-12-30T03:20:52.081Z,2.70
2017-12-30T03:23:19.639Z,2.60
2017-12-30T03:25:47.130Z,2.60
2017-12-30T03:28:14.679Z,2.70
2017-12-30T03:30:42.174Z,2.70
2017-12-30T03:33:09.665Z,2.60
2017-12-30T03:35:37.198Z,2.70
2017-12-30T03:38:04.733Z,2.80
2017-12-30T03:40:32.225Z,3.00
2017-12-30T03:42:59.757Z,3.00
2017-12-30T03:45:27.296Z,3.10
2017-12-30T03:47:55.558Z,3.00
2017-12-30T03:50:23.076Z,3.00
2017-12-30T03:52:50.628Z,3.00
2017-12-30T03:55:18.139Z,3.00
2017-12-30T03:57:45.634Z,3.00
2017-12-30T04:00:13.937Z,3.00
2017-12-30T04:02:41.432Z,3.00
2017-12-30T04:05:08.930Z,2.90
2017-12-30T04:07:37.221Z,2.90
2017-12-30T04:10:05.522Z,2.90
2017-12-30T04:12:33.045Z,2.90
2017-12-30T04:15:00.554Z,2.90
2017-12-30T04:17:28.114Z,2.90
2017-12-30T04:19:55.610Z,2.90
2017-12-30T04:22:23.138Z,2.90
2017-12-30T04:24:50.673Z,2.90
2017-12-30T04:27:18.209Z,2.90
2017-12-30T04:29:45.719Z,2.90
2017-12-30T04:32:13.386Z,2.90
2017-12-30T04:34:41.666Z,3.00
2017-12-30T04:37:09.202Z,2.90
2017-12-30T04:39:36.732Z,3.00
2017-12-30T04:42:04.238Z,3.00
2017-12-30T04:44:32.526Z,2.80
2017-12-30T04:47:00.817Z,2.70
2017-12-30T04:49:28.306Z,2.70
2017-12-30T04:51:55.826Z,2.60
2017-12-30T04:54:23.373Z,2.50
2017-12-30T04:56:50.870Z,2.50
2017-12-30T04:59:19.249Z,2.40
2017-12-30T05:01:47.523Z,2.50
2017-12-30T05:04:15.858Z,2.50
2017-12-30T05:06:43.352Z,2.50
2017-12-30T05:09:10.886Z,2.50
2017-12-30T05:11:38.384Z,2.60
2017-12-30T05:14:05.921Z,2.60
2017-12-30T05:16:33.421Z,2.60
2017-12-30T05:19:01.686Z,2.50
2017-12-30T05:21:29.214Z,2.50
2017-12-30T05:23:56.705Z,2.60
2017-12-30T05:26:24.225Z,2.60
2017-12-30T05:28:51.717Z,2.50
2017-12-30T05:31:19.244Z,2.60
2017-12-30T05:33:46.753Z,2.60
2017-12-30T05:36:14.313Z,2.70
2017-12-30T05:38:41.814Z,2.60
2017-12-30T05:41:10.063Z,2.70
2017-12-30T05:43:37.589Z,2.70
2017-12-30T05:46:05.093Z,2.80
2017-12-30T05:48:32.618Z,3.00
2017-12-30T05:51:00.165Z,3.00
2017-12-30T05:53:27.662Z,3.20
2017-12-30T05:55:55.149Z,3.30
2017-12-30T05:58:22.665Z,3.40
2017-12-30T06:00:50.157Z,3.40
2017-12-30T06:03:17.696Z,3.50
2017-12-30T06:05:45.211Z,3.50
2017-12-30T06:08:12.711Z,3.70
2017-12-30T06:10:40.233Z,3.70
2017-12-30T06:13:07.737Z,3.70
2017-12-30T06:15:35.256Z,3.80
2017-12-30T06:18:02.798Z,3.90
2017-12-30T06:20:30.357Z,3.90
2017-12-30T06:22:57.845Z,3.70
2017-12-30T06:25:25.374Z,3.60
2017-12-30T06:27:52.864Z,3.70
2017-12-30T06:30:20.410Z,3.80
2017-12-30T06:32:47.902Z,3.70
2017-12-30T06:35:15.433Z,3.80
2017-12-30T06:37:42.929Z,3.80
2017-12-30T06:40:10.474Z,3.90
2017-12-30T06:42:38.005Z,4.00
2017-12-30T06:45:05.529Z,4.00
2017-12-30T06:47:33.063Z,4.00
2017-12-30T06:50:00.551Z,3.90
2017-12-30T06:52:28.081Z,3.90
2017-12-30T06:54:55.605Z,4.00
2017-12-30T06:57:23.110Z,3.90
2017-12-30T06:59:50.647Z,3.90
2017-12-30T07:02:18.184Z,3.90
2017-12-30T07:04:46.474Z,3.90
2017-12-30T07:07:14.763Z,3.90
2017-12-30T07:09:42.294Z,3.90
2017-12-30T07:12:09.810Z,4.00
2017-12-30T07:14:37.297Z,4.00
2017-12-30T07:17:04.847Z,4.00
2017-12-30T07:19:32.377Z,4.10
2017-12-30T07:21:59.942Z,4.10
2017-12-30T07:24:27.447Z,4.20
2017-12-30T07:26:55.001Z,4.10
2017-12-30T07:29:22.486Z,4.30
2017-12-30T07:31:50.005Z,4.30
2017-12-30T07:34:17.557Z,4.40
2017-12-30T07:36:45.814Z,4.40
2017-12-30T07:39:13.316Z,4.40
2017-12-30T07:41:40.840Z,4.50
2017-12-30T07:44:08.382Z,4.50
2017-12-30T07:46:35.886Z,4.50
2017-12-30T07:49:04.146Z,4.10
2017-12-30T07:51:31.694Z,4.10
2017-12-30T07:53:59.184Z,4.00
2017-12-30T07:56:27.499Z,3.40
2017-12-30T07:58:54.989Z,3.40
2017-12-30T08:01:22.566Z,3.40
2017-12-30T08:03:50.079Z,3.40
2017-12-30T08:06:17.585Z,3.40
2017-12-30T08:08:45.109Z,3.40
2017-12-30T08:11:12.726Z,3.40
2017-12-30T08:13:40.210Z,3.40
2017-12-30T08:16:08.473Z,3.60
2017-12-30T08:18:36.026Z,3.60
2017-12-30T08:21:03.540Z,3.70
2017-12-30T08:23:31.115Z,3.90
2017-12-30T08:25:58.638Z,4.00
2017-12-30T08:28:26.125Z,4.10
2017-12-30T08:30:54.398Z,4.30
2017-12-30T08:33:21.938Z,4.30
2017-12-30T08:35:49.477Z,4.50
2017-12-30T08:38:16.963Z,4.50
2017-12-30T08:40:44.500Z,4.50
2017-12-30T08:43:12.005Z,4.60
2017-12-30T08:45:40.765Z,4.80
2017-12-30T08:48:08.339Z,4.80
2017-12-30T08:50:35.842Z,4.90
2017-12-30T08:53:04.103Z,4.90
2017-12-30T08:55:31.638Z,4.90
2017-12-30T08:57:59.130Z,5.00
2017-12-30T09:00:27.398Z,5.00
2017-12-30T09:02:54.940Z,5.00
2017-12-30T09:05:22.500Z,5.00
2017-12-30T09:07:50.043Z,5.00
2017-12-30T09:10:17.531Z,5.00
2017-12-30T09:12:45.058Z,5.00
2017-12-30T09:15:12.546Z,5.10
2017-12-30T09:17:40.073Z,5.30
2017-12-30T09:20:08.361Z,5.30
2017-12-30T09:22:35.855Z,5.30
2017-12-30T09:25:03.382Z,5.50
2017-12-30T09:27:30.875Z,5.70
2017-12-30T09:29:58.361Z,5.60
2017-12-30T09:32:25.889Z,5.60
2017-12-30T09:34:53.370Z,5.60
2017-12-30T09:37:20.886Z,5.60
2017-12-30T09:39:49.174Z,5.70
2017-12-30T09:42:16.723Z,5.70
2017-12-30T09:44:45.021Z,5.60
2017-12-30T09:47:12.562Z,5.60
2017-12-30T09:49:40.072Z,5.60
2017-12-30T09:52:07.645Z,5.60
2017-12-30T09:54:35.126Z,5.60
2017-12-30T09:57:02.622Z,5.50
2017-12-30T09:59:30.914Z,5.50
2017-12-30T10:01:59.169Z,5.50
2017-12-30T10:04:26.702Z,5.50
2017-12-30T10:06:54.249Z,5.70
2017-12-30T10:09:21.797Z,5.70
2017-12-30T10:11:49.290Z,5.80
2017-12-30T10:14:16.770Z,5.90
2017-12-30T10:16:44.292Z,5.90
2017-12-30T11:48:20.496Z,7.70
2017-12-30T11:50:47.986Z,7.90
2017-12-30T11:53:15.550Z,7.90
2017-12-30T11:55:43.057Z,7.80
2017-12-30T11:58:10.609Z,7.70
2017-12-30T12:00:38.162Z,7.80
2017-12-30T12:03:06.414Z,7.80
2017-12-30T12:05:33.928Z,7.80
2017-12-30T12:08:01.462Z,7.70
2017-12-30T12:10:28.961Z,7.70
2017-12-30T12:12:56.489Z,7.80
2017-12-30T12:15:24.017Z,7.70
2017-12-30T12:17:51.502Z,7.60
2017-12-30T12:20:19.041Z,7.70
2017-12-30T12:22:46.533Z,7.80
2017-12-30T12:25:14.874Z,8.00
2017-12-30T12:27:42.441Z,8.00
2017-12-30T12:30:09.982Z,8.10
2017-12-30T12:32:37.490Z,8.20
2017-12-30T12:35:05.013Z,8.30
2017-12-30T12:37:32.506Z,8.40
2017-12-30T12:40:00.037Z,8.40
2017-12-30T12:42:27.565Z,8.50
2017-12-30T12:44:55.086Z,8.50
2017-12-30T12:47:22.606Z,8.40
2017-12-30T12:49:50.853Z,8.30
2017-12-30T12:52:18.354Z,8.30
2017-12-30T12:54:46.640Z,8.40
2017-12-30T12:57:14.132Z,8.40
2017-12-30T12:59:41.648Z,8.40
2017-12-30T13:02:09.930Z,8.50
2017-12-30T13:04:38.216Z,8.50
2017-12-30T13:07:06.517Z,8.60
2017-12-30T13:09:34.016Z,8.50
2017-12-30T13:12:01.562Z,8.70
2017-12-30T13:14:29.087Z,8.70
2017-12-30T13:16:57.337Z,8.70
2017-12-30T13:19:24.927Z,8.70
2017-12-30T13:21:52.380Z,8.70
2017-12-30T13:24:19.874Z,8.70
2017-12-30T13:26:47.402Z,8.60
2017-12-30T13:29:14.893Z,8.60
2017-12-30T13:31:42.380Z,8.70
2017-12-30T13:34:09.912Z,8.70
2017-12-30T13:36:38.161Z,8.90
2017-12-30T13:39:05.706Z,8.80
2017-12-30T13:41:33.224Z,9.00
2017-12-30T13:44:01.486Z,9.00
2017-12-30T13:46:28.970Z,9.00
2017-12-30T13:48:56.489Z,9.10
2017-12-30T13:51:24.013Z,9.20
2017-12-30T13:53:51.509Z,9.30
2017-12-30T13:56:19.038Z,9.40
2017-12-30T13:58:46.529Z,9.50
2017-12-30T14:01:14.038Z,9.60
2017-12-30T14:03:42.335Z,9.70
2017-12-30T14:06:09.833Z,9.60
2017-12-30T14:08:37.374Z,9.60
2017-12-30T14:11:04.865Z,9.50
2017-12-30T14:13:32.398Z,9.50
2017-12-30T14:15:59.918Z,9.60
2017-12-30T14:18:27.489Z,9.60
2017-12-30T14:20:55.034Z,9.60
2017-12-30T14:23:22.538Z,9.60
2017-12-30T14:25:50.786Z,9.60
2017-12-30T14:28:18.309Z,9.60
2017-12-30T14:30:45.806Z,9.60
2017-12-30T14:33:13.321Z,9.60
2017-12-30T14:35:40.813Z,9.60
2017-12-30T14:38:08.338Z,9.60
2017-12-30T14:40:35.850Z,9.60
2017-12-30T14:43:03.338Z,9.70
2017-12-30T14:45:30.878Z,9.70
2017-12-30T14:47:58.365Z,9.80
2017-12-30T14:50:25.883Z,9.90
2017-12-30T14:52:53.412Z,10.00
2017-12-30T14:55:21.718Z,10.00
2017-12-30T14:57:49.217Z,10.00
2017-12-30T15:00:16.750Z,10.00
2017-12-30T15:02:44.247Z,10.00
2017-12-30T15:05:11.750Z,9.90
2017-12-30T15:07:40.053Z,10.00
2017-12-30T15:10:07.550Z,10.00
2017-12-30T15:12:35.093Z,10.00
2017-12-30T15:15:02.602Z,9.90
2017-12-30T15:17:30.129Z,10.00
2017-12-30T15:19:57.677Z,10.00
2017-12-30T15:22:25.193Z,9.90
2017-12-30T15:24:52.731Z,9.90
2017-12-30T15:27:20.223Z,9.80
2017-12-30T15:29:48.475Z,9.80
2017-12-30T15:32:16.001Z,9.70
2017-12-30T15:34:43.509Z,9.70
2017-12-30T15:37:11.034Z,9.60
2017-12-30T15:39:38.524Z,9.70
2017-12-30T15:42:06.064Z,9.80
2017-12-30T15:44:33.544Z,9.80
2017-12-30T15:47:01.058Z,9.80
2017-12-30T15:49:29.359Z,9.60
2017-12-30T15:51:56.885Z,9.60
2017-12-30T15:54:24.390Z,9.60
2017-12-30T15:56:51.893Z,9.70
2017-12-30T15:59:19.423Z,9.70
2017-12-30T16:01:46.910Z,9.80
2017-12-30T16:04:14.436Z,9.90
2017-12-30T16:06:41.941Z,10.00
2017-12-30T16:09:09.489Z,10.00
2017-12-30T16:11:36.985Z,10.00
2017-12-30T16:14:04.475Z,10.10
2017-12-30T16:16:32.770Z,10.20
2017-12-30T16:19:00.295Z,10.20
2017-12-30T16:21:27.840Z,10.30
2017-12-30T16:23:55.423Z,10.40
2017-12-30T16:26:22.909Z,10.40
2017-12-30T16:28:51.204Z,10.60
2017-12-30T16:31:18.710Z,10.50
2017-12-30T16:33:46.239Z,10.60
2017-12-30T16:36:13.731Z,10.50
2017-12-30T16:38:41.260Z,10.50
2017-12-30T16:41:08.809Z,10.50
2017-12-30T16:43:36.330Z,10.40
2017-12-30T16:46:03.865Z,10.40
2017-12-30T16:48:31.381Z,10.50
2017-12-30T16:50:59.676Z,10.60
2017-12-30T16:53:27.937Z,10.60
2017-12-30T16:55:55.490Z,10.60
2017-12-30T16:58:22.976Z,10.70
2017-12-30T17:00:51.266Z,10.70
2017-12-30T17:03:19.562Z,10.80
2017-12-30T17:05:47.065Z,10.70
2017-12-30T17:08:14.605Z,10.80
2017-12-30T17:10:42.124Z,10.90
2017-12-30T17:13:09.654Z,10.90
2017-12-30T17:15:37.146Z,10.90
2017-12-30T17:18:04.681Z,11.00
2017-12-30T17:20:32.218Z,11.00
2017-12-30T17:22:59.754Z,11.00
2017-12-30T17:25:28.062Z,11.00
2017-12-30T17:27:55.582Z,11.10
2017-12-30T17:30:23.882Z,11.20
2017-12-30T17:32:52.156Z,11.20
2017-12-30T17:35:20.414Z,11.30
2017-12-30T17:37:47.949Z,11.30
2017-12-30T17:40:15.477Z,11.40
2017-12-30T17:42:43.060Z,11.40
2017-12-30T17:45:10.553Z,11.40
2017-12-30T17:47:38.095Z,11.50
2017-12-30T17:50:05.593Z,11.70
2017-12-30T17:52:33.094Z,11.70
2017-12-30T17:55:00.637Z,11.80
2017-12-30T17:57:28.145Z,11.80
2017-12-30T17:59:55.673Z,11.80
2017-12-30T18:02:23.933Z,11.80
2017-12-30T18:04:51.453Z,11.80
2017-12-30T18:07:18.975Z,11.80
2017-12-30T18:09:47.270Z,11.90
2017-12-30T18:12:14.781Z,11.90
2017-12-30T18:14:42.313Z,11.90
2017-12-30T18:17:09.835Z,11.90
2017-12-30T18:19:37.376Z,11.80
2017-12-30T18:22:04.861Z,11.90
2017-12-30T18:24:32.364Z,11.80
2017-12-30T18:26:59.909Z,11.70
2017-12-30T18:29:28.197Z,11.40
2017-12-30T18:31:56.449Z,11.30
2017-12-30T18:34:24.002Z,11.30
2017-12-30T18:36:51.488Z,11.30
2017-12-30T18:39:19.770Z,11.30
2017-12-30T18:41:48.065Z,11.30
2017-12-30T18:44:15.611Z,11.30
2017-12-30T18:46:43.871Z,11.40
2017-12-30T18:49:11.398Z,11.30
2017-12-30T18:51:38.921Z,11.40
2017-12-30T18:54:07.206Z,11.30
2017-12-30T18:56:35.501Z,11.40
2017-12-30T18:59:02.998Z,11.40
2017-12-30T19:01:30.531Z,11.40
2017-12-30T19:03:58.071Z,11.50
2017-12-30T19:06:25.590Z,11.50
2017-12-30T19:08:53.143Z,11.50
2017-12-30T19:11:20.789Z,11.60
2017-12-30T19:13:48.318Z,11.50
2017-12-30T19:16:15.868Z,11.50
2017-12-30T19:18:43.362Z,11.50
2017-12-30T19:21:11.630Z,11.70
2017-12-30T19:23:39.165Z,11.60
2017-12-30T19:26:06.665Z,11.60
2017-12-30T19:28:34.946Z,11.60
2017-12-30T19:31:03.213Z,11.60
2017-12-30T19:33:30.780Z,11.50
2017-12-30T19:35:58.290Z,11.60
2017-12-30T19:38:25.846Z,11.50
2017-12-30T19:40:53.334Z,11.50
2017-12-30T19:43:20.840Z,11.50
2017-12-30T19:45:48.371Z,11.50
2017-12-30T19:48:15.908Z,11.50
2017-12-30T19:50:43.402Z,11.50
2017-12-30T19:53:10.941Z,11.50
2017-12-30T19:55:38.429Z,11.60
2017-12-30T19:58:05.928Z,11.70
2017-12-30T20:00:34.221Z,11.70
2017-12-30T20:03:02.518Z,11.70
2017-12-30T20:05:30.059Z,11.60
2017-12-30T20:07:58.362Z,11.60
2017-12-30T20:10:25.857Z,11.60
2017-12-30T20:12:53.351Z,11.70
2017-12-30T20:15:20.881Z,11.70
2017-12-30T20:17:48.388Z,11.60
2017-12-30T20:20:16.711Z,11.60
2017-12-30T20:22:44.211Z,11.60
2017-12-30T20:25:11.702Z,11.60
2017-12-30T20:27:40.019Z,11.50
2017-12-30T20:30:07.565Z,11.50
2017-12-30T20:32:35.061Z,11.60
2017-12-30T20:35:02.607Z,11.50
2017-12-30T20:37:30.129Z,11.50
2017-12-30T20:39:58.394Z,11.60
2017-12-30T20:42:25.955Z,11.60
2017-12-30T20:44:53.476Z,11.60
2017-12-30T20:47:21.017Z,11.60
2017-12-30T20:49:48.522Z,11.60
2017-12-30T20:52:16.017Z,11.60
2017-12-30T20:54:43.561Z,11.60
2017-12-30T20:57:11.078Z,11.60
2017-12-30T20:59:38.633Z,11.60
2017-12-30T21:02:06.898Z,11.60
2017-12-30T21:04:35.170Z,11.70
2017-12-30T21:07:02.713Z,11.70
2017-12-30T21:09:30.208Z,11.70
2017-12-30T21:11:58.498Z,11.60
2017-12-30T21:14:26.770Z,11.60
2017-12-30T21:16:55.059Z,11.70
2017-12-30T21:19:23.328Z,11.70
2017-12-30T21:21:51.618Z,11.60
2017-12-30T21:24:19.886Z,11.70
2017-12-30T21:26:47.425Z,11.60
2017-12-30T21:29:14.951Z,11.70
2017-12-30T21:31:42.469Z,11.70
2017-12-30T21:34:10.018Z,11.80
2017-12-30T21:36:37.531Z,11.70
2017-12-30T21:39:05.068Z,11.80
2017-12-30T21:41:32.578Z,11.80
2017-12-30T21:44:00.110Z,11.90
2017-12-30T21:46:27.697Z,11.90
2017-12-30T21:48:55.193Z,11.80
2017-12-30T21:51:22.731Z,11.90
2017-12-30T21:53:50.242Z,11.90
2017-12-30T21:56:17.746Z,11.80
2017-12-30T21:58:45.270Z,11.90
2017-12-30T22:01:12.780Z,11.80
2017-12-30T22:03:40.325Z,11.90
2017-12-30T22:06:07.867Z,11.90
2017-12-30T22:08:36.137Z,11.90
2017-12-30T22:11:03.636Z,11.90
2017-12-30T22:13:31.175Z,11.90
2017-12-30T22:15:58.672Z,11.90
2017-12-30T22:18:26.219Z,11.90
2017-12-30T22:20:54.485Z,11.90
2017-12-30T22:23:21.985Z,11.80
2017-12-30T22:25:49.529Z,11.90
2017-12-30T22:28:17.026Z,11.90
2017-12-30T22:30:44.525Z,11.90
2017-12-30T22:33:12.062Z,11.90
2017-12-30T22:35:39.580Z,11.90
2017-12-30T22:38:07.118Z,11.90
2017-12-30T22:40:34.663Z,12.00
2017-12-30T22:43:02.193Z,11.90
2017-12-30T22:45:29.693Z,11.90
2017-12-30T22:47:57.235Z,11.90
2017-12-30T22:50:24.728Z,11.90
2017-12-30T22:52:52.260Z,11.90
2017-12-30T22:55:19.762Z,11.90
2017-12-30T22:57:47.290Z,12.00
2017-12-30T23:00:14.806Z,11.90
2017-12-30T23:02:43.129Z,11.90
2017-12-30T23:05:10.630Z,11.80
2017-12-30T23:07:38.898Z,11.90
2017-12-30T23:10:06.463Z,11.90
2017-12-30T23:12:34.003Z,11.90
2017-12-30T23:15:01.467Z,11.90
2017-12-30T23:17:29.041Z,11.90
2017-12-30T23:19:56.558Z,11.90
2017-12-30T23:22:24.854Z,11.90
2017-12-30T23:24:52.356Z,11.90
2017-12-30T23:27:19.908Z,12.00
2017-12-30T23:29:47.405Z,11.90
2017-12-30T23:32:14.979Z,12.00
2017-12-30T23:34:43.281Z,12.00
2017-12-30T23:37:10.770Z,12.00
2017-12-30T23:39:38.281Z,12.10
2017-12-30T23:42:05.812Z,12.10
2017-12-30T23:44:33.318Z,12.00
2017-12-30T23:47:01.610Z,12.10
2017-12-30T23:49:29.958Z,12.10
2017-12-30T23:51:58.285Z,12.00
2017-12-30T23:54:25.790Z,12.00
2017-12-30T23:56:53.317Z,12.10
2017-12-30T23:59:20.805Z,12.10
